Latest Weather Observations for Perisher Valley

IDN60901

Issued at 4:21 pm EST Wednesday 5 August 2015 (issued every 10 minutes, with the page automatically refreshed every 10 minutes)

About weather observations | Map of Canberra area stations | Latest observations for Canberra area | Other Formats
Station Details ID: 071075 Name: PERISHER VALLEY AWS Lat: -36.41 Lon: 148.41 Height: 1738.0 m
Data from the previous 72 hours. | See also: Recent months at Perisher Valley
Date/Time
EST
Tmp

°C
App
Tmp
°C
Dew
Point
°C
Rel
Hum
%
Delta-T

°C
Wind Press
QNH
hPa
Press
MSL
hPa
Rain
since
9 am
mm
Dir
 
Spd
km/h
Gust
km/h
Spd
kts
Gust
kts
05/04:00pm -3.0 -8.7 -3.8 94 0.1 WSW 17 37 9 20 - - 8.4
05/03:30pm -2.1 -6.5 -2.6 96 0.1 WSW 11 28 6 15 - - 7.8
05/03:00pm -2.3 -8.9 -3.0 95 0.1 WNW 22 39 12 21 - - 6.8
05/02:30pm -2.1 -8.6 -2.8 95 0.2 W 22 46 12 25 - - 6.6
05/02:00pm -1.9 -8.8 -2.6 95 0.2 W 24 50 13 27 - - 6.6
05/01:30pm -1.7 -8.2 -2.3 96 0.1 W 22 50 12 27 - - 6.4
05/01:00pm -2.0 -9.7 -2.6 96 0.1 WNW 28 46 15 25 - - 5.8
05/12:58pm -1.8 -9.4 -2.4 96 0.1 WNW 28 46 15 25 - - 5.8
05/12:30pm -2.1 -9.4 -2.8 95 0.2 WNW 26 43 14 23 - - 5.2
05/12:00pm -2.3 -9.2 -3.0 95 0.1 WNW 24 37 13 20 - - 4.4
05/11:30am -2.4 -9.0 -3.1 95 0.1 WNW 22 41 12 22 - - 3.6
05/11:00am -2.5 -8.1 -3.2 95 0.1 WNW 17 41 9 22 - - 2.6
05/10:30am -2.7 -9.3 -3.4 95 0.1 WNW 22 46 12 25 - - 1.6
05/10:00am -2.9 -10.7 -3.6 95 0.1 WNW 28 54 15 29 - - 1.0
05/09:54am -2.9 -10.7 -3.6 95 0.1 WNW 28 54 15 29 - - 0.8
05/09:30am -3.2 -9.3 -3.9 95 0.1 WNW 19 37 10 20 - - 0.4
05/09:00am -3.4 -8.8 -4.1 95 0.1 WNW 15 35 8 19 - - 5.8
05/08:30am -3.5 -10.2 -4.2 95 0.1 WNW 22 41 12 22 - - 5.2
05/08:00am -3.9 -10.7 -4.7 94 0.1 W 22 43 12 23 - - 4.6
05/07:30am -4.1 -10.5 -4.9 94 0.1 WNW 20 39 11 21 - - 4.0
05/07:00am -4.2 -11.4 -5.0 94 0.1 W 24 48 13 26 - - 3.4
05/06:54am -4.2 -12.1 -5.0 94 0.1 WNW 28 48 15 26 - - 3.4
05/06:30am -4.3 -10.5 -5.1 94 0.1 W 19 46 10 25 - - 2.8
05/06:09am -4.2 -12.9 -5.0 94 0.1 WNW 32 56 17 30 - - 2.4
05/06:00am -4.2 -9.7 -5.0 94 0.1 WNW 15 43 8 23 - - 2.2
05/05:30am -4.3 -9.8 -5.1 94 0.1 WNW 15 33 8 18 - - 1.6
05/05:00am -4.5 -9.6 -5.3 94 0.1 WNW 13 32 7 17 - - 1.2
05/04:30am -4.6 -10.1 -5.4 94 0.1 WNW 15 35 8 19 - - 0.8
05/04:05am -5.0 -13.0 -6.0 93 0.1 WNW 28 48 15 26 - - 0.6
05/04:00am -5.1 -12.4 -6.1 93 0.1 WNW 24 43 13 23 - - 0.6
05/03:30am -5.1 -12.4 -6.1 93 0.1 W 24 44 13 24 - - 0.4
05/03:00am -5.1 -14.1 -6.1 93 0.1 WNW 33 54 18 29 - - 0.2
05/02:46am -5.3 -13.3 -6.2 93 0.1 WNW 28 54 15 29 - - 0.2
05/02:30am -5.4 -13.5 -6.3 93 0.1 W 28 44 15 24 - - 0.2
05/02:20am -5.6 -13.7 -6.5 93 0.1 W 28 46 15 25 - - 0.2
05/02:00am -5.7 -12.6 -6.6 93 0.1 WNW 22 35 12 19 - - 0.0
05/01:30am -5.9 -12.5 -6.8 93 0.0 W 20 37 11 20 - - 0.0
05/01:00am -6.1 -14.2 -7.0 93 0.0 WNW 28 43 15 23 - - 0.0
05/12:30am -6.2 -12.8 -7.1 93 0.0 WNW 20 43 11 23 - - 0.0
05/12:00am -6.2 -14.3 -7.1 93 0.0 WNW 28 44 15 24 - - 0.0
 
Date/Time
EST
Tmp

°C
App
Tmp
°C
Dew
Point
°C
Rel
Hum
%
Delta-T

°C
Wind Press
QNH
hPa
Press
MSL
hPa
Rain
since
9 am
mm
Dir
 
Spd
km/h
Gust
km/h
Spd
kts
Gust
kts
04/11:30pm -6.3 -14.5 -7.4 92 0.1 W 28 50 15 27 - - 0.0
04/11:00pm -6.5 -15.1 -7.6 92 0.1 W 30 50 16 27 - - 0.0
04/10:30pm -6.6 -16.1 -7.7 92 0.1 W 35 54 19 29 - - 0.0
04/10:05pm -6.7 -15.7 -7.8 92 0.1 W 32 56 17 30 - - 0.0
04/10:00pm -6.7 -15.7 -7.8 92 0.1 W 32 48 17 26 - - 0.0
04/09:30pm -6.9 -16.1 -8.0 92 0.1 W 33 56 18 30 - - 0.0
04/09:00pm -6.8 -15.4 -7.9 92 0.1 W 30 54 16 29 - - 0.0
04/08:30pm -6.8 -15.0 -7.9 92 0.1 W 28 48 15 26 - - 0.0
04/08:02pm -6.8 -16.3 -7.9 92 0.1 W 35 54 19 29 - - 0.0
04/08:00pm -6.7 -16.6 -7.8 92 0.1 W 37 54 20 29 - - 0.0
04/07:30pm -6.9 -17.6 -8.0 92 0.1 W 41 59 22 32 - - 0.0
04/07:00pm -6.8 -17.1 -7.9 92 0.1 W 39 61 21 33 - - 0.0
04/06:30pm -6.7 -16.6 -7.8 92 0.1 W 37 59 20 32 - - 0.0
04/06:00pm -6.2 -15.3 -7.3 92 0.1 W 33 54 18 29 - - 0.0
04/05:30pm -6.4 -14.6 -7.5 92 0.1 W 28 54 15 29 - - 0.0
04/05:07pm -6.4 -14.6 -7.8 90 0.2 W 28 50 15 27 - - 0.0
04/05:00pm -6.2 -11.9 -7.6 90 0.2 WSW 15 46 8 25 - - 0.0
04/04:30pm -6.2 -12.7 -7.7 89 0.2 SW 19 39 10 21 - - 0.0
04/04:00pm -6.0 -12.1 -7.5 89 0.2 WSW 17 35 9 19 - - 0.0
04/03:30pm -5.7 -11.8 -7.2 89 0.2 W 17 39 9 21 - - 0.0
04/03:00pm -5.1 -11.7 -6.6 89 0.3 WSW 20 35 11 19 - - 0.0
04/02:30pm -4.4 -10.7 -5.9 89 0.3 W 19 33 10 18 - - 0.0
04/02:00pm -4.5 -11.4 -6.0 89 0.3 WNW 22 32 12 17 - - 0.0
04/01:30pm -4.7 -12.0 -6.1 90 0.3 WNW 24 35 13 19 - - 0.0
04/01:00pm -4.7 -11.2 -6.1 90 0.3 W 20 32 11 17 - - 0.0
04/12:30pm -4.7 -12.0 -6.1 90 0.3 W 24 35 13 19 - - 0.0
04/12:00pm -4.3 -10.8 -5.7 90 0.3 WNW 20 28 11 15 - - 0.0
04/11:30am -4.2 -8.2 -5.6 90 0.3 WSW 7 22 4 12 - - 0.0
04/11:00am -4.4 -8.2 -5.9 89 0.3 WSW 6 19 3 10 - - 0.0
04/10:30am -3.5 -6.9 -4.9 90 0.3 W 4 15 2 8 - - 0.0
04/10:00am -4.4 -8.8 -5.8 90 0.3 W 9 20 5 11 - - 0.0
04/09:30am -3.7 -6.7 -4.9 91 0.2 NNE 2 6 1 3 - - 0.0
04/09:00am -5.0 -7.7 -6.2 91 0.2 CALM 0 2 0 1 - - 6.0
04/08:30am -7.4 -10.4 -8.9 89 0.2 CALM 0 2 0 1 - - 6.0
04/08:00am -10.2 -14.1 -11.9 87 0.1 SW 4 7 2 4 - - 6.0
04/07:30am -11.3 -14.6 -13.0 87 0.1 CALM 0 2 0 1 - - 6.0
04/07:00am -12.6 -15.9 -14.6 85 0.1 CALM 0 2 0 1 - - 6.0
04/06:30am -11.6 -16.0 -13.5 86 0.1 WSW 6 11 3 6 - - 6.0
04/06:00am -12.3 -15.6 -14.3 85 0.1 CALM 0 4 0 2 - - 6.0
04/05:30am -11.6 -15.6 -13.5 86 0.1 SW 4 7 2 4 - - 6.0
04/05:00am -12.2 -16.7 -14.2 85 0.1 SW 6 9 3 5 - - 6.0
04/04:30am -12.0 -15.3 -13.7 87 0.1 CALM 0 2 0 1 - - 6.0
04/04:00am -11.9 -15.6 -13.6 87 0.1 NNE 2 4 1 2 - - 6.0
04/03:30am -11.8 -15.5 -13.5 87 0.1 NNE 2 6 1 3 - - 6.0
04/03:00am -11.2 -14.8 -12.8 88 0.1 ENE 2 6 1 3 - - 6.0
04/02:30am -11.5 -14.8 -13.2 87 0.1 CALM 0 2 0 1 - - 6.0
04/02:00am -11.9 -16.3 -13.6 87 0.1 WNW 6 13 3 7 - - 6.0
04/01:30am -11.4 -15.4 -13.1 87 0.1 WSW 4 9 2 5 - - 6.0
04/01:00am -11.3 -14.9 -13.0 87 0.1 WNW 2 6 1 3 - - 6.0
04/12:30am -10.4 -13.6 -12.0 88 0.1 CALM 0 4 0 2 - - 6.0
04/12:00am -8.9 -12.4 -10.4 89 0.1 NW 2 9 1 5 - - 6.0
 
Date/Time
EST
Tmp

°C
App
Tmp
°C
Dew
Point
°C
Rel
Hum
%
Delta-T

°C
Wind Press
QNH
hPa
Press
MSL
hPa
Rain
since
9 am
mm
Dir
 
Spd
km/h
Gust
km/h
Spd
kts
Gust
kts
03/11:30pm -7.8 -11.9 -9.1 90 0.1 W 6 13 3 7 - - 6.0
03/11:00pm -8.5 -11.9 -9.8 90 0.1 NW 2 6 1 3 - - 6.0
03/10:30pm -7.6 -11.7 -8.9 90 0.1 WSW 6 15 3 8 - - 6.0
03/10:00pm -7.1 -11.7 -8.3 91 0.1 WSW 9 20 5 11 - - 6.0
03/09:30pm -6.7 -11.7 -7.9 91 0.1 WSW 11 26 6 14 - - 6.0
03/09:00pm -6.6 -11.6 -7.8 91 0.1 WSW 11 28 6 15 - - 6.0
03/08:30pm -6.1 -11.0 -7.2 92 0.1 WSW 11 24 6 13 - - 6.0
03/08:00pm -5.3 -9.4 -6.2 93 0.1 SW 7 20 4 11 - - 6.0
03/07:30pm -4.5 -8.8 -5.3 94 0.1 WSW 9 24 5 13 - - 6.0
03/07:00pm -4.2 -8.9 -5.0 94 0.1 WSW 11 19 6 10 - - 6.0
03/06:30pm -4.3 -9.4 -5.1 94 0.1 WSW 13 24 7 13 - - 6.0
03/06:00pm -4.2 -10.6 -5.0 94 0.1 WSW 20 33 11 18 - - 6.0
03/05:30pm -4.1 -11.3 -4.9 94 0.1 WSW 24 39 13 21 - - 6.0
03/05:00pm -4.0 -8.7 -4.8 94 0.1 WSW 11 28 6 15 - - 6.0
03/04:30pm -3.7 -7.6 -4.5 94 0.1 SW 7 26 4 14 - - 6.0
03/04:00pm -3.1 -8.8 -3.8 95 0.1 WSW 17 50 9 27 - - 6.0
03/03:30pm -3.2 -8.9 -3.9 95 0.1 W 17 35 9 19 - - 5.4
03/03:00pm -3.2 -10.6 -3.9 95 0.1 W 26 57 14 31 - - 4.8
03/02:30pm -2.5 -11.6 -3.2 95 0.1 WNW 35 59 19 32 - - 4.8
03/02:00pm -2.3 -11.7 -3.0 95 0.1 WNW 37 59 20 32 - - 4.4
03/01:30pm -2.2 -11.6 -2.7 96 0.1 W 37 57 20 31 - - 3.6
03/01:00pm -2.3 -10.0 -3.0 95 0.1 W 28 54 15 29 - - 3.0
03/12:30pm -2.4 -13.0 -3.1 95 0.1 W 43 65 23 35 - - 2.6
03/12:00pm -2.2 -11.2 -2.7 96 0.1 W 35 67 19 36 - - 2.6
03/11:30am -2.3 -12.8 -2.8 96 0.1 W 43 69 23 37 - - 2.2
03/11:00am -2.0 -11.0 -2.6 96 0.1 W 35 61 19 33 - - 2.0
03/10:30am -2.2 -12.9 -2.7 96 0.1 W 44 70 24 38 - - 1.4
03/10:00am -2.1 -11.5 -2.8 95 0.2 W 37 63 20 34 - - 0.8
03/09:30am -2.0 -9.7 -2.6 96 0.1 W 28 54 15 29 - - 0.4
03/09:00am -2.4 -10.5 -2.9 96 0.1 W 30 48 16 26 - - 32.6
03/08:43am -2.5 -10.2 -3.0 96 0.1 W 28 54 15 29 - - 32.4
03/08:30am -2.6 -8.8 -3.1 96 0.1 W 20 48 11 26 - - 32.2
03/08:00am -3.0 -12.9 -3.7 95 0.1 W 39 69 21 37 - - 31.6
03/07:30am -2.6 -11.3 -3.1 96 0.1 W 33 56 18 30 - - 31.4
03/07:00am -2.6 -10.3 -3.1 96 0.1 W 28 65 15 35 - - 31.2
03/06:30am -2.9 -12.0 -3.6 95 0.1 W 35 74 19 40 - - 30.8
03/06:00am -2.9 -12.4 -3.6 95 0.1 W 37 65 20 35 - - 30.4
03/05:30am -2.5 -10.6 -3.0 96 0.1 W 30 70 16 38 - - 30.0
03/05:27am -2.3 -9.2 -2.8 96 0.1 W 24 70 13 38 - - 30.0
03/05:00am -2.1 -7.7 -2.6 96 0.1 W 17 50 9 27 - - 29.6
03/04:30am -2.3 -8.8 -2.8 96 0.1 W 22 46 12 25 - - 29.2
03/04:00am -2.3 -10.0 -2.8 96 0.1 W 28 65 15 35 - - 29.0
03/03:30am -2.4 -13.1 -2.9 96 0.1 W 44 72 24 39 - - 28.6
03/03:00am -2.4 -14.3 -2.9 96 0.1 W 50 70 27 38 - - 28.4
03/02:30am -2.2 -14.8 -2.7 96 0.1 W 54 83 29 45 - - 28.2
03/02:00am -1.8 -12.3 -2.4 96 0.1 W 43 74 23 40 - - 28.0
03/01:51am -1.8 -11.5 -2.4 96 0.1 W 39 74 21 40 - - 27.8
03/01:30am -1.7 -9.7 -2.1 97 0.1 W 30 54 16 29 - - 27.4
03/01:00am -1.7 -10.1 -2.3 96 0.1 W 32 61 17 33 - - 27.0
03/12:30am -1.9 -10.9 -2.5 96 0.1 W 35 59 19 32 - - 26.4
03/12:00am -1.8 -10.8 -2.4 96 0.1 W 35 63 19 34 - - 25.8
 
Date/Time
EST
Tmp

°C
App
Tmp
°C
Dew
Point
°C
Rel
Hum
%
Delta-T

°C
Wind Press
QNH
hPa
Press
MSL
hPa
Rain
since
9 am
mm
Dir
 
Spd
km/h
Gust
km/h
Spd
kts
Gust
kts
02/11:30pm -2.0 -11.0 -2.6 96 0.1 W 35 61 19 33 - - 25.0
02/11:00pm -2.2 -12.0 -2.9 95 0.2 W 39 67 21 36 - - 24.4
02/10:30pm -2.2 -11.2 -2.9 95 0.2 W 35 72 19 39 - - 24.0
02/10:00pm -2.6 -14.1 -3.3 95 0.1 WNW 48 78 26 42 - - 23.8
02/09:30pm -3.0 -13.3 -3.7 95 0.1 W 41 70 22 38 - - 23.6
02/09:00pm -3.0 -15.0 -4.1 92 0.3 WNW 50 78 27 42 - - 23.6
02/08:30pm -3.1 -14.7 -3.9 94 0.1 W 48 78 26 42 - - 23.6
02/08:00pm -3.0 -13.6 -3.8 94 0.1 W 43 78 23 42 - - 23.6
02/07:30pm -3.2 -13.5 -4.2 93 0.2 W 41 72 22 39 - - 23.6
02/07:00pm -3.2 -13.5 -4.0 94 0.1 W 41 70 22 38 - - 23.6
02/06:30pm -3.2 -12.8 -4.3 92 0.2 W 37 59 20 32 - - 23.6
02/06:00pm -2.9 -12.5 -4.6 88 0.5 W 37 59 20 32 - - 23.6
02/05:31pm -2.6 -13.3 -3.9 91 0.3 WNW 43 63 23 34 - - 23.6
02/05:30pm -2.6 -13.2 -3.7 92 0.3 WNW 43 61 23 33 - - 23.6
02/05:00pm -2.4 -11.1 -3.8 90 0.4 W 33 57 18 31 - - 23.6
02/04:30pm -2.0 -10.2 -3.6 89 0.5 W 30 52 16 28 - - 23.6

Latest Capital City Observations: Canberra | Sydney | Melbourne | Brisbane | Adelaide | Perth | Hobart | Darwin

Other Formats:

Comma delimited format used in spreadsheet applications
http://www.bom.gov.au/fwo/IDN60903/IDN60903.94915.axf

JavaScript Object Notation format (JSON) in row-major order
http://www.bom.gov.au/fwo/IDN60903/IDN60903.94915.json